sensor_id;sensor_type;location;lat;lon;timestamp;P1;durP1;ratioP1;P2;durP2;ratioP2
75135;SDS011;63707;52.212;9.540;2023-12-20T00:02:13;11.15;;;6.18;;
75135;SDS011;63707;52.212;9.540;2023-12-20T00:04:39;11.10;;;5.88;;
75135;SDS011;63707;52.212;9.540;2023-12-20T00:07:05;12.40;;;6.35;;
75135;SDS011;63707;52.212;9.540;2023-12-20T00:09:31;13.52;;;5.85;;
75135;SDS011;63707;52.212;9.540;2023-12-20T00:11:56;11.18;;;5.53;;
75135;SDS011;63707;52.212;9.540;2023-12-20T00:14:22;14.55;;;5.82;;
75135;SDS011;63707;52.212;9.540;2023-12-20T00:16:47;12.15;;;5.70;;
75135;SDS011;63707;52.212;9.540;2023-12-20T00:19:13;14.32;;;5.90;;
75135;SDS011;63707;52.212;9.540;2023-12-20T00:21:38;12.02;;;5.15;;
75135;SDS011;63707;52.212;9.540;2023-12-20T00:24:06;10.27;;;4.45;;
75135;SDS011;63707;52.212;9.540;2023-12-20T00:26:31;15.93;;;4.20;;
75135;SDS011;63707;52.212;9.540;2023-12-20T00:28:57;14.27;;;4.22;;
75135;SDS011;63707;52.212;9.540;2023-12-20T00:31:22;8.35;;;3.65;;
75135;SDS011;63707;52.212;9.540;2023-12-20T00:33:47;9.15;;;3.40;;
75135;SDS011;63707;52.212;9.540;2023-12-20T00:36:13;8.27;;;3.15;;
75135;SDS011;63707;52.212;9.540;2023-12-20T00:38:38;13.50;;;3.33;;
75135;SDS011;63707;52.212;9.540;2023-12-20T00:41:05;13.40;;;3.33;;
75135;SDS011;63707;52.212;9.540;2023-12-20T00:43:31;12.30;;;3.55;;
75135;SDS011;63707;52.212;9.540;2023-12-20T00:45:56;13.38;;;2.60;;
75135;SDS011;63707;52.212;9.540;2023-12-20T00:48:22;13.30;;;3.03;;
75135;SDS011;63707;52.212;9.540;2023-12-20T00:50:47;10.77;;;2.40;;
75135;SDS011;63707;52.212;9.540;2023-12-20T00:53:13;10.95;;;2.67;;
75135;SDS011;63707;52.212;9.540;2023-12-20T00:55:38;17.40;;;2.65;;
75135;SDS011;63707;52.212;9.540;2023-12-20T00:58:05;10.52;;;2.28;;
75135;SDS011;63707;52.212;9.540;2023-12-20T01:00:31;17.73;;;3.10;;
75135;SDS011;63707;52.212;9.540;2023-12-20T01:02:56;14.43;;;2.47;;
75135;SDS011;63707;52.212;9.540;2023-12-20T01:05:22;12.57;;;2.67;;
75135;SDS011;63707;52.212;9.540;2023-12-20T01:07:50;12.15;;;2.60;;
75135;SDS011;63707;52.212;9.540;2023-12-20T01:10:16;16.77;;;2.88;;
75135;SDS011;63707;52.212;9.540;2023-12-20T01:12:43;10.70;;;2.78;;
75135;SDS011;63707;52.212;9.540;2023-12-20T01:15:10;16.48;;;2.95;;
75135;SDS011;63707;52.212;9.540;2023-12-20T01:17:36;10.23;;;2.70;;
75135;SDS011;63707;52.212;9.540;2023-12-20T01:20:02;12.48;;;3.58;;
75135;SDS011;63707;52.212;9.540;2023-12-20T01:22:27;12.13;;;2.85;;
75135;SDS011;63707;52.212;9.540;2023-12-20T01:24:53;15.93;;;2.60;;
75135;SDS011;63707;52.212;9.540;2023-12-20T01:27:18;16.23;;;2.95;;
75135;SDS011;63707;52.212;9.540;2023-12-20T01:29:44;14.18;;;2.60;;
75135;SDS011;63707;52.212;9.540;2023-12-20T01:32:11;13.90;;;3.28;;
75135;SDS011;63707;52.212;9.540;2023-12-20T01:34:36;13.38;;;2.58;;
75135;SDS011;63707;52.212;9.540;2023-12-20T01:37:01;9.32;;;2.95;;
75135;SDS011;63707;52.212;9.540;2023-12-20T01:39:27;18.00;;;3.00;;
75135;SDS011;63707;52.212;9.540;2023-12-20T01:41:53;19.65;;;3.83;;
75135;SDS011;63707;52.212;9.540;2023-12-20T01:44:18;12.57;;;2.78;;
75135;SDS011;63707;52.212;9.540;2023-12-20T01:46:44;15.10;;;2.85;;
75135;SDS011;63707;52.212;9.540;2023-12-20T01:49:11;12.23;;;3.13;;
75135;SDS011;63707;52.212;9.540;2023-12-20T01:51:38;11.48;;;2.72;;
75135;SDS011;63707;52.212;9.540;2023-12-20T01:54:03;13.38;;;2.90;;
75135;SDS011;63707;52.212;9.540;2023-12-20T01:56:30;9.43;;;2.17;;
75135;SDS011;63707;52.212;9.540;2023-12-20T01:58:57;11.00;;;2.70;;
75135;SDS011;63707;52.212;9.540;2023-12-20T02:01:23;12.50;;;2.70;;
75135;SDS011;63707;52.212;9.540;2023-12-20T02:03:49;11.65;;;2.50;;
75135;SDS011;63707;52.212;9.540;2023-12-20T02:06:17;15.18;;;2.30;;
75135;SDS011;63707;52.212;9.540;2023-12-20T02:08:43;16.40;;;2.70;;
75135;SDS011;63707;52.212;9.540;2023-12-20T02:11:09;10.13;;;1.95;;
75135;SDS011;63707;52.212;9.540;2023-12-20T02:13:35;13.90;;;2.58;;
75135;SDS011;63707;52.212;9.540;2023-12-20T02:16:01;8.95;;;2.10;;
75135;SDS011;63707;52.212;9.540;2023-12-20T02:18:26;10.13;;;2.08;;
75135;SDS011;63707;52.212;9.540;2023-12-20T02:20:52;13.02;;;2.50;;
75135;SDS011;63707;52.212;9.540;2023-12-20T02:23:19;13.75;;;2.92;;
75135;SDS011;63707;52.212;9.540;2023-12-20T02:25:45;12.73;;;2.00;;
75135;SDS011;63707;52.212;9.540;2023-12-20T02:28:11;13.98;;;2.70;;
75135;SDS011;63707;52.212;9.540;2023-12-20T02:30:36;7.75;;;2.03;;
75135;SDS011;63707;52.212;9.540;2023-12-20T02:33:02;6.45;;;1.80;;
75135;SDS011;63707;52.212;9.540;2023-12-20T02:35:32;13.07;;;2.08;;
75135;SDS011;63707;52.212;9.540;2023-12-20T02:37:58;11.40;;;1.60;;
75135;SDS011;63707;52.212;9.540;2023-12-20T02:40:24;8.27;;;1.63;;
75135;SDS011;63707;52.212;9.540;2023-12-20T02:42:50;14.82;;;2.30;;
75135;SDS011;63707;52.212;9.540;2023-12-20T02:45:15;9.07;;;1.55;;
75135;SDS011;63707;52.212;9.540;2023-12-20T02:47:41;8.63;;;1.50;;
75135;SDS011;63707;52.212;9.540;2023-12-20T02:50:07;9.57;;;1.60;;
75135;SDS011;63707;52.212;9.540;2023-12-20T02:52:32;11.73;;;1.30;;
75135;SDS011;63707;52.212;9.540;2023-12-20T02:54:58;10.35;;;1.75;;
75135;SDS011;63707;52.212;9.540;2023-12-20T02:57:25;7.90;;;1.17;;
75135;SDS011;63707;52.212;9.540;2023-12-20T02:59:50;12.00;;;1.50;;
75135;SDS011;63707;52.212;9.540;2023-12-20T03:02:16;11.57;;;1.75;;
75135;SDS011;63707;52.212;9.540;2023-12-20T03:04:41;6.10;;;1.90;;
75135;SDS011;63707;52.212;9.540;2023-12-20T03:07:06;6.93;;;2.10;;
75135;SDS011;63707;52.212;9.540;2023-12-20T03:09:32;8.75;;;1.95;;
75135;SDS011;63707;52.212;9.540;2023-12-20T03:11:57;10.60;;;1.90;;
75135;SDS011;63707;52.212;9.540;2023-12-20T03:14:24;9.23;;;2.15;;
75135;SDS011;63707;52.212;9.540;2023-12-20T03:16:50;10.60;;;2.47;;
75135;SDS011;63707;52.212;9.540;2023-12-20T03:19:16;11.98;;;2.80;;
75135;SDS011;63707;52.212;9.540;2023-12-20T03:21:41;12.98;;;2.78;;
75135;SDS011;63707;52.212;9.540;2023-12-20T03:24:07;13.27;;;3.00;;
75135;SDS011;63707;52.212;9.540;2023-12-20T03:26:32;13.02;;;2.97;;
75135;SDS011;63707;52.212;9.540;2023-12-20T03:28:58;14.88;;;2.90;;
75135;SDS011;63707;52.212;9.540;2023-12-20T03:31:24;15.15;;;2.53;;
75135;SDS011;63707;52.212;9.540;2023-12-20T03:33:50;13.23;;;2.47;;
75135;SDS011;63707;52.212;9.540;2023-12-20T03:36:17;9.65;;;2.53;;
75135;SDS011;63707;52.212;9.540;2023-12-20T03:38:42;9.43;;;2.50;;
75135;SDS011;63707;52.212;9.540;2023-12-20T03:41:08;14.75;;;2.38;;
75135;SDS011;63707;52.212;9.540;2023-12-20T03:43:33;13.63;;;2.83;;
75135;SDS011;63707;52.212;9.540;2023-12-20T03:45:59;14.27;;;2.00;;
75135;SDS011;63707;52.212;9.540;2023-12-20T03:48:26;13.50;;;2.47;;
75135;SDS011;63707;52.212;9.540;2023-12-20T03:50:51;14.90;;;2.45;;
75135;SDS011;63707;52.212;9.540;2023-12-20T03:53:17;11.38;;;2.15;;
75135;SDS011;63707;52.212;9.540;2023-12-20T03:55:42;9.18;;;1.77;;
75135;SDS011;63707;52.212;9.540;2023-12-20T03:58:09;17.77;;;3.25;;
75135;SDS011;63707;52.212;9.540;2023-12-20T04:00:34;14.98;;;3.13;;
75135;SDS011;63707;52.212;9.540;2023-12-20T04:03:00;13.38;;;2.20;;
75135;SDS011;63707;52.212;9.540;2023-12-20T04:05:27;12.77;;;2.15;;
75135;SDS011;63707;52.212;9.540;2023-12-20T04:07:52;9.38;;;1.67;;
75135;SDS011;63707;52.212;9.540;2023-12-20T04:10:18;11.07;;;2.10;;
75135;SDS011;63707;52.212;9.540;2023-12-20T04:12:43;10.73;;;2.05;;
75135;SDS011;63707;52.212;9.540;2023-12-20T04:15:09;13.00;;;2.97;;
75135;SDS011;63707;52.212;9.540;2023-12-20T04:17:35;10.70;;;2.20;;
75135;SDS011;63707;52.212;9.540;2023-12-20T04:20:01;13.32;;;2.50;;
75135;SDS011;63707;52.212;9.540;2023-12-20T04:22:29;16.90;;;2.42;;
75135;SDS011;63707;52.212;9.540;2023-12-20T04:24:54;12.18;;;3.00;;
75135;SDS011;63707;52.212;9.540;2023-12-20T04:27:20;13.50;;;2.58;;
75135;SDS011;63707;52.212;9.540;2023-12-20T04:29:45;15.20;;;3.17;;
75135;SDS011;63707;52.212;9.540;2023-12-20T04:32:10;13.43;;;2.55;;
75135;SDS011;63707;52.212;9.540;2023-12-20T04:34:36;14.38;;;2.72;;
75135;SDS011;63707;52.212;9.540;2023-12-20T04:37:02;13.48;;;2.88;;
75135;SDS011;63707;52.212;9.540;2023-12-20T04:39:28;14.40;;;2.90;;
75135;SDS011;63707;52.212;9.540;2023-12-20T04:41:54;13.48;;;3.40;;
75135;SDS011;63707;52.212;9.540;2023-12-20T04:44:19;9.48;;;2.50;;
75135;SDS011;63707;52.212;9.540;2023-12-20T04:46:45;13.07;;;2.63;;
75135;SDS011;63707;52.212;9.540;2023-12-20T04:49:10;12.27;;;3.67;;
75135;SDS011;63707;52.212;9.540;2023-12-20T04:51:36;13.85;;;3.00;;
75135;SDS011;63707;52.212;9.540;2023-12-20T04:54:03;9.15;;;2.17;;
75135;SDS011;63707;52.212;9.540;2023-12-20T04:56:29;14.88;;;2.78;;
75135;SDS011;63707;52.212;9.540;2023-12-20T04:58:55;20.30;;;3.22;;
75135;SDS011;63707;52.212;9.540;2023-12-20T05:01:20;16.88;;;3.42;;
75135;SDS011;63707;52.212;9.540;2023-12-20T05:03:46;17.42;;;3.22;;
75135;SDS011;63707;52.212;9.540;2023-12-20T05:06:12;20.13;;;3.40;;
75135;SDS011;63707;52.212;9.540;2023-12-20T05:08:37;17.00;;;3.13;;
75135;SDS011;63707;52.212;9.540;2023-12-20T05:11:03;14.50;;;3.80;;
75135;SDS011;63707;52.212;9.540;2023-12-20T05:13:30;11.95;;;3.35;;
75135;SDS011;63707;52.212;9.540;2023-12-20T05:15:56;18.00;;;3.70;;
75135;SDS011;63707;52.212;9.540;2023-12-20T05:18:21;14.55;;;3.00;;
75135;SDS011;63707;52.212;9.540;2023-12-20T05:20:48;21.40;;;4.65;;
75135;SDS011;63707;52.212;9.540;2023-12-20T05:23:13;12.60;;;3.92;;
75135;SDS011;63707;52.212;9.540;2023-12-20T05:25:39;17.67;;;3.95;;
75135;SDS011;63707;52.212;9.540;2023-12-20T05:28:04;19.40;;;3.42;;
75135;SDS011;63707;52.212;9.540;2023-12-20T05:30:31;13.70;;;4.50;;
75135;SDS011;63707;52.212;9.540;2023-12-20T05:32:57;20.70;;;3.67;;
75135;SDS011;63707;52.212;9.540;2023-12-20T05:35:22;21.30;;;3.83;;
75135;SDS011;63707;52.212;9.540;2023-12-20T05:37:48;14.13;;;3.58;;
75135;SDS011;63707;52.212;9.540;2023-12-20T05:40:14;14.48;;;3.50;;
75135;SDS011;63707;52.212;9.540;2023-12-20T05:42:39;20.27;;;3.75;;
75135;SDS011;63707;52.212;9.540;2023-12-20T05:45:05;17.00;;;4.20;;
75135;SDS011;63707;52.212;9.540;2023-12-20T05:47:32;21.08;;;6.68;;
75135;SDS011;63707;52.212;9.540;2023-12-20T05:49:58;21.27;;;3.75;;
75135;SDS011;63707;52.212;9.540;2023-12-20T05:52:23;14.45;;;3.58;;
75135;SDS011;63707;52.212;9.540;2023-12-20T05:54:49;20.60;;;4.18;;
75135;SDS011;63707;52.212;9.540;2023-12-20T05:57:15;17.10;;;3.90;;
75135;SDS011;63707;52.212;9.540;2023-12-20T05:59:40;18.73;;;3.67;;
75135;SDS011;63707;52.212;9.540;2023-12-20T06:02:06;19.63;;;4.38;;
75135;SDS011;63707;52.212;9.540;2023-12-20T06:04:33;19.08;;;4.18;;
75135;SDS011;63707;52.212;9.540;2023-12-20T06:06:59;23.80;;;5.55;;
75135;SDS011;63707;52.212;9.540;2023-12-20T06:09:24;18.30;;;4.10;;
75135;SDS011;63707;52.212;9.540;2023-12-20T06:11:50;21.38;;;4.75;;
75135;SDS011;63707;52.212;9.540;2023-12-20T06:14:16;25.83;;;4.05;;
75135;SDS011;63707;52.212;9.540;2023-12-20T06:16:41;21.30;;;4.75;;
75135;SDS011;63707;52.212;9.540;2023-12-20T06:19:07;18.98;;;4.13;;
75135;SDS011;63707;52.212;9.540;2023-12-20T06:21:34;20.75;;;4.68;;
75135;SDS011;63707;52.212;9.540;2023-12-20T06:23:59;19.42;;;4.47;;
75135;SDS011;63707;52.212;9.540;2023-12-20T06:26:25;22.67;;;4.18;;
75135;SDS011;63707;52.212;9.540;2023-12-20T06:28:50;19.30;;;4.05;;
75135;SDS011;63707;52.212;9.540;2023-12-20T06:31:16;16.17;;;3.88;;
75135;SDS011;63707;52.212;9.540;2023-12-20T06:33:42;18.90;;;4.95;;
75135;SDS011;63707;52.212;9.540;2023-12-20T06:36:10;23.02;;;4.20;;
75135;SDS011;63707;52.212;9.540;2023-12-20T06:38:37;15.55;;;4.20;;
75135;SDS011;63707;52.212;9.540;2023-12-20T06:41:03;23.70;;;4.45;;
75135;SDS011;63707;52.212;9.540;2023-12-20T06:43:29;28.48;;;4.35;;
75135;SDS011;63707;52.212;9.540;2023-12-20T06:45:56;22.80;;;5.00;;
75135;SDS011;63707;52.212;9.540;2023-12-20T06:48:21;15.45;;;3.95;;
75135;SDS011;63707;52.212;9.540;2023-12-20T06:50:47;21.30;;;5.53;;
75135;SDS011;63707;52.212;9.540;2023-12-20T06:53:12;18.55;;;4.68;;
75135;SDS011;63707;52.212;9.540;2023-12-20T06:55:39;14.30;;;4.68;;
75135;SDS011;63707;52.212;9.540;2023-12-20T06:58:04;19.75;;;5.13;;
75135;SDS011;63707;52.212;9.540;2023-12-20T07:00:30;19.50;;;3.80;;
75135;SDS011;63707;52.212;9.540;2023-12-20T07:02:55;14.20;;;4.18;;
75135;SDS011;63707;52.212;9.540;2023-12-20T07:05:21;11.13;;;3.85;;
75135;SDS011;63707;52.212;9.540;2023-12-20T07:07:47;16.80;;;4.22;;
75135;SDS011;63707;52.212;9.540;2023-12-20T07:10:13;20.00;;;4.75;;
75135;SDS011;63707;52.212;9.540;2023-12-20T07:12:39;20.23;;;4.60;;
75135;SDS011;63707;52.212;9.540;2023-12-20T07:15:05;21.30;;;4.95;;
75135;SDS011;63707;52.212;9.540;2023-12-20T07:17:32;20.92;;;4.18;;
75135;SDS011;63707;52.212;9.540;2023-12-20T07:19:58;16.27;;;4.05;;
75135;SDS011;63707;52.212;9.540;2023-12-20T07:22:23;26.77;;;4.65;;
75135;SDS011;63707;52.212;9.540;2023-12-20T07:24:49;23.27;;;4.30;;
75135;SDS011;63707;52.212;9.540;2023-12-20T07:27:17;16.70;;;3.83;;
75135;SDS011;63707;52.212;9.540;2023-12-20T07:29:44;15.85;;;4.30;;
75135;SDS011;63707;52.212;9.540;2023-12-20T07:32:09;20.25;;;4.30;;
75135;SDS011;63707;52.212;9.540;2023-12-20T07:34:35;20.90;;;3.78;;
75135;SDS011;63707;52.212;9.540;2023-12-20T07:37:00;23.52;;;4.03;;
75135;SDS011;63707;52.212;9.540;2023-12-20T07:39:25;21.33;;;4.25;;
75135;SDS011;63707;52.212;9.540;2023-12-20T07:41:51;21.13;;;4.10;;
75135;SDS011;63707;52.212;9.540;2023-12-20T07:44:16;17.05;;;4.22;;
75135;SDS011;63707;52.212;9.540;2023-12-20T07:46:43;16.25;;;4.45;;
75135;SDS011;63707;52.212;9.540;2023-12-20T07:49:09;26.90;;;5.35;;
75135;SDS011;63707;52.212;9.540;2023-12-20T07:51:35;17.30;;;5.32;;
75135;SDS011;63707;52.212;9.540;2023-12-20T07:54:00;15.85;;;4.15;;
75135;SDS011;63707;52.212;9.540;2023-12-20T07:56:26;23.67;;;5.70;;
75135;SDS011;63707;52.212;9.540;2023-12-20T07:58:51;27.52;;;6.53;;
75135;SDS011;63707;52.212;9.540;2023-12-20T08:01:17;25.15;;;6.03;;
75135;SDS011;63707;52.212;9.540;2023-12-20T08:03:44;22.05;;;5.63;;
75135;SDS011;63707;52.212;9.540;2023-12-20T08:06:11;20.70;;;5.43;;
75135;SDS011;63707;52.212;9.540;2023-12-20T08:08:36;17.45;;;5.20;;
75135;SDS011;63707;52.212;9.540;2023-12-20T08:11:02;30.65;;;6.28;;
75135;SDS011;63707;52.212;9.540;2023-12-20T08:13:28;31.42;;;6.90;;
75135;SDS011;63707;52.212;9.540;2023-12-20T08:15:54;21.92;;;5.50;;
75135;SDS011;63707;52.212;9.540;2023-12-20T08:18:21;21.83;;;4.80;;
75135;SDS011;63707;52.212;9.540;2023-12-20T08:20:48;24.80;;;6.20;;
75135;SDS011;63707;52.212;9.540;2023-12-20T08:23:14;19.50;;;5.50;;
75135;SDS011;63707;52.212;9.540;2023-12-20T08:25:40;25.08;;;5.40;;
75135;SDS011;63707;52.212;9.540;2023-12-20T08:28:06;21.38;;;6.20;;
75135;SDS011;63707;52.212;9.540;2023-12-20T08:30:31;24.40;;;6.38;;
75135;SDS011;63707;52.212;9.540;2023-12-20T08:32:59;19.10;;;5.63;;
75135;SDS011;63707;52.212;9.540;2023-12-20T08:35:25;19.52;;;5.03;;
75135;SDS011;63707;52.212;9.540;2023-12-20T08:37:51;17.67;;;5.57;;
75135;SDS011;63707;52.212;9.540;2023-12-20T08:40:17;25.90;;;4.95;;
75135;SDS011;63707;52.212;9.540;2023-12-20T08:42:42;18.40;;;4.25;;
75135;SDS011;63707;52.212;9.540;2023-12-20T08:45:08;18.38;;;4.88;;
75135;SDS011;63707;52.212;9.540;2023-12-20T08:47:34;22.88;;;5.40;;
75135;SDS011;63707;52.212;9.540;2023-12-20T08:49:59;18.77;;;5.53;;
75135;SDS011;63707;52.212;9.540;2023-12-20T08:52:26;19.15;;;4.65;;
75135;SDS011;63707;52.212;9.540;2023-12-20T08:54:53;22.92;;;5.72;;
75135;SDS011;63707;52.212;9.540;2023-12-20T08:57:19;17.05;;;4.43;;
75135;SDS011;63707;52.212;9.540;2023-12-20T08:59:46;20.13;;;5.57;;
75135;SDS011;63707;52.212;9.540;2023-12-20T09:02:12;24.20;;;5.30;;
75135;SDS011;63707;52.212;9.540;2023-12-20T09:04:37;29.27;;;8.15;;
75135;SDS011;63707;52.212;9.540;2023-12-20T09:07:03;30.85;;;6.18;;
75135;SDS011;63707;52.212;9.540;2023-12-20T09:09:28;23.55;;;5.70;;
75135;SDS011;63707;52.212;9.540;2023-12-20T09:11:55;17.80;;;4.95;;
75135;SDS011;63707;52.212;9.540;2023-12-20T09:14:21;18.50;;;4.90;;
75135;SDS011;63707;52.212;9.540;2023-12-20T09:16:46;13.63;;;3.65;;
75135;SDS011;63707;52.212;9.540;2023-12-20T09:19:12;18.70;;;4.55;;
75135;SDS011;63707;52.212;9.540;2023-12-20T09:21:37;20.88;;;4.53;;
75135;SDS011;63707;52.212;9.540;2023-12-20T09:24:03;24.45;;;5.53;;
75135;SDS011;63707;52.212;9.540;2023-12-20T09:26:28;21.88;;;5.07;;
75135;SDS011;63707;52.212;9.540;2023-12-20T09:28:55;23.42;;;5.63;;
75135;SDS011;63707;52.212;9.540;2023-12-20T09:31:22;20.25;;;4.35;;
75135;SDS011;63707;52.212;9.540;2023-12-20T09:33:47;25.50;;;4.95;;
75135;SDS011;63707;52.212;9.540;2023-12-20T09:36:13;19.45;;;5.93;;
75135;SDS011;63707;52.212;9.540;2023-12-20T09:38:39;20.20;;;3.95;;
75135;SDS011;63707;52.212;9.540;2023-12-20T09:41:04;18.42;;;3.83;;
75135;SDS011;63707;52.212;9.540;2023-12-20T09:43:31;23.42;;;5.05;;
75135;SDS011;63707;52.212;9.540;2023-12-20T09:46:02;23.50;;;4.45;;
75135;SDS011;63707;52.212;9.540;2023-12-20T09:48:30;19.00;;;4.97;;
75135;SDS011;63707;52.212;9.540;2023-12-20T09:50:57;20.25;;;4.20;;
75135;SDS011;63707;52.212;9.540;2023-12-20T09:53:23;17.75;;;3.80;;
75135;SDS011;63707;52.212;9.540;2023-12-20T09:55:54;11.00;;;3.40;;
75135;SDS011;63707;52.212;9.540;2023-12-20T09:58:23;18.70;;;4.22;;
75135;SDS011;63707;52.212;9.540;2023-12-20T10:00:48;14.57;;;3.58;;
75135;SDS011;63707;52.212;9.540;2023-12-20T10:03:17;19.88;;;4.15;;
75135;SDS011;63707;52.212;9.540;2023-12-20T10:05:47;20.45;;;4.43;;
75135;SDS011;63707;52.212;9.540;2023-12-20T10:08:17;23.80;;;4.47;;
75135;SDS011;63707;52.212;9.540;2023-12-20T10:10:47;21.48;;;4.28;;
75135;SDS011;63707;52.212;9.540;2023-12-20T10:13:12;14.93;;;3.92;;
75135;SDS011;63707;52.212;9.540;2023-12-20T10:15:38;10.32;;;3.42;;
75135;SDS011;63707;52.212;9.540;2023-12-20T10:18:04;17.42;;;3.97;;
75135;SDS011;63707;52.212;9.540;2023-12-20T10:20:32;16.77;;;4.07;;
75135;SDS011;63707;52.212;9.540;2023-12-20T10:22:57;14.23;;;4.18;;
75135;SDS011;63707;52.212;9.540;2023-12-20T10:25:24;18.38;;;4.60;;
75135;SDS011;63707;52.212;9.540;2023-12-20T10:27:50;23.80;;;4.75;;
75135;SDS011;63707;52.212;9.540;2023-12-20T10:30:33;18.75;;;4.75;;
75135;SDS011;63707;52.212;9.540;2023-12-20T10:32:58;16.63;;;4.10;;
75135;SDS011;63707;52.212;9.540;2023-12-20T10:35:24;15.98;;;4.35;;
75135;SDS011;63707;52.212;9.540;2023-12-20T10:37:51;14.70;;;5.18;;
75135;SDS011;63707;52.212;9.540;2023-12-20T10:40:21;15.48;;;4.50;;
75135;SDS011;63707;52.212;9.540;2023-12-20T10:42:47;23.55;;;5.50;;
75135;SDS011;63707;52.212;9.540;2023-12-20T10:45:15;16.90;;;5.28;;
75135;SDS011;63707;52.212;9.540;2023-12-20T10:47:42;20.52;;;5.82;;
75135;SDS011;63707;52.212;9.540;2023-12-20T10:50:11;27.83;;;5.93;;
75135;SDS011;63707;52.212;9.540;2023-12-20T10:52:37;20.50;;;4.80;;
75135;SDS011;63707;52.212;9.540;2023-12-20T10:55:05;14.13;;;4.35;;
75135;SDS011;63707;52.212;9.540;2023-12-20T10:57:32;16.00;;;5.22;;
75135;SDS011;63707;52.212;9.540;2023-12-20T10:59:58;18.58;;;5.20;;
75135;SDS011;63707;52.212;9.540;2023-12-20T11:02:30;8.88;;;3.30;;
75135;SDS011;63707;52.212;9.540;2023-12-20T11:04:59;20.48;;;5.20;;
75135;SDS011;63707;52.212;9.540;2023-12-20T11:07:34;19.45;;;5.53;;
75135;SDS011;63707;52.212;9.540;2023-12-20T11:12:51;15.57;;;5.03;;
75135;SDS011;63707;52.212;9.540;2023-12-20T11:15:20;18.65;;;5.68;;
75135;SDS011;63707;52.212;9.540;2023-12-20T11:17:47;18.65;;;4.97;;
75135;SDS011;63707;52.212;9.540;2023-12-20T11:20:21;16.70;;;5.63;;
75135;SDS011;63707;52.212;9.540;2023-12-20T11:22:52;13.32;;;4.50;;
75135;SDS011;63707;52.212;9.540;2023-12-20T11:25:18;17.27;;;4.32;;
75135;SDS011;63707;52.212;9.540;2023-12-20T11:27:46;14.02;;;3.88;;
75135;SDS011;63707;52.212;9.540;2023-12-20T11:33:16;15.43;;;4.43;;
75135;SDS011;63707;52.212;9.540;2023-12-20T11:35:42;17.40;;;4.85;;
75135;SDS011;63707;52.212;9.540;2023-12-20T11:38:08;13.40;;;4.38;;
75135;SDS011;63707;52.212;9.540;2023-12-20T11:40:34;24.67;;;4.28;;
75135;SDS011;63707;52.212;9.540;2023-12-20T11:43:02;17.42;;;4.90;;
75135;SDS011;63707;52.212;9.540;2023-12-20T11:45:28;13.80;;;3.55;;
75135;SDS011;63707;52.212;9.540;2023-12-20T11:47:54;14.60;;;4.43;;
75135;SDS011;63707;52.212;9.540;2023-12-20T11:50:22;13.57;;;3.47;;
75135;SDS011;63707;52.212;9.540;2023-12-20T11:52:49;13.50;;;3.70;;
75135;SDS011;63707;52.212;9.540;2023-12-20T11:55:16;15.85;;;3.70;;
75135;SDS011;63707;52.212;9.540;2023-12-20T11:57:42;10.30;;;3.53;;
75135;SDS011;63707;52.212;9.540;2023-12-20T12:00:10;14.65;;;3.63;;
75135;SDS011;63707;52.212;9.540;2023-12-20T12:02:36;12.88;;;3.30;;
75135;SDS011;63707;52.212;9.540;2023-12-20T12:05:02;15.70;;;3.67;;
75135;SDS011;63707;52.212;9.540;2023-12-20T12:07:30;18.17;;;3.53;;
75135;SDS011;63707;52.212;9.540;2023-12-20T12:09:56;16.40;;;3.60;;
75135;SDS011;63707;52.212;9.540;2023-12-20T12:12:21;12.00;;;3.10;;
75135;SDS011;63707;52.212;9.540;2023-12-20T12:14:48;6.47;;;1.70;;
75135;SDS011;63707;52.212;9.540;2023-12-20T12:17:15;2.97;;;1.13;;
75135;SDS011;63707;52.212;9.540;2023-12-20T12:19:41;2.47;;;0.80;;
75135;SDS011;63707;52.212;9.540;2023-12-20T12:22:07;3.28;;;1.45;;
75135;SDS011;63707;52.212;9.540;2023-12-20T12:24:37;27.25;;;12.65;;
75135;SDS011;63707;52.212;9.540;2023-12-20T12:27:05;4.93;;;1.83;;
75135;SDS011;63707;52.212;9.540;2023-12-20T12:29:31;5.18;;;0.77;;
75135;SDS011;63707;52.212;9.540;2023-12-20T12:31:56;2.45;;;0.80;;
75135;SDS011;63707;52.212;9.540;2023-12-20T12:34:23;3.25;;;0.70;;
75135;SDS011;63707;52.212;9.540;2023-12-20T12:36:48;4.38;;;0.90;;
75135;SDS011;63707;52.212;9.540;2023-12-20T12:39:14;10.15;;;5.18;;
75135;SDS011;63707;52.212;9.540;2023-12-20T12:41:40;11.00;;;3.75;;
75135;SDS011;63707;52.212;9.540;2023-12-20T12:44:06;4.03;;;1.00;;
75135;SDS011;63707;52.212;9.540;2023-12-20T12:46:31;7.00;;;1.88;;
75135;SDS011;63707;52.212;9.540;2023-12-20T12:48:57;4.30;;;0.70;;
75135;SDS011;63707;52.212;9.540;2023-12-20T12:51:24;4.88;;;0.70;;
75135;SDS011;63707;52.212;9.540;2023-12-20T12:53:50;5.70;;;1.23;;
75135;SDS011;63707;52.212;9.540;2023-12-20T12:56:15;3.63;;;1.08;;
75135;SDS011;63707;52.212;9.540;2023-12-20T12:58:41;3.10;;;0.80;;
75135;SDS011;63707;52.212;9.540;2023-12-20T13:01:07;3.28;;;0.85;;
75135;SDS011;63707;52.212;9.540;2023-12-20T13:03:32;4.38;;;0.73;;
75135;SDS011;63707;52.212;9.540;2023-12-20T13:05:59;3.38;;;0.70;;
75135;SDS011;63707;52.212;9.540;2023-12-20T13:08:26;1.60;;;0.55;;
75135;SDS011;63707;52.212;9.540;2023-12-20T13:10:53;4.53;;;1.10;;
75135;SDS011;63707;52.212;9.540;2023-12-20T13:13:20;3.83;;;0.50;;
75135;SDS011;63707;52.212;9.540;2023-12-20T13:15:46;3.03;;;0.73;;
75135;SDS011;63707;52.212;9.540;2023-12-20T13:18:15;2.72;;;0.68;;
75135;SDS011;63707;52.212;9.540;2023-12-20T13:20:41;2.80;;;0.55;;
75135;SDS011;63707;52.212;9.540;2023-12-20T13:23:06;3.45;;;0.63;;
75135;SDS011;63707;52.212;9.540;2023-12-20T13:25:34;4.70;;;0.88;;
75135;SDS011;63707;52.212;9.540;2023-12-20T13:27:59;3.58;;;1.30;;
75135;SDS011;63707;52.212;9.540;2023-12-20T13:30:25;3.63;;;0.98;;
75135;SDS011;63707;52.212;9.540;2023-12-20T13:32:50;4.18;;;0.80;;
75135;SDS011;63707;52.212;9.540;2023-12-20T13:35:15;5.63;;;1.73;;
75135;SDS011;63707;52.212;9.540;2023-12-20T13:37:41;5.97;;;1.45;;
75135;SDS011;63707;52.212;9.540;2023-12-20T13:40:07;4.55;;;1.83;;
75135;SDS011;63707;52.212;9.540;2023-12-20T13:42:34;5.25;;;1.35;;
75135;SDS011;63707;52.212;9.540;2023-12-20T13:45:00;5.13;;;1.17;;
75135;SDS011;63707;52.212;9.540;2023-12-20T13:47:25;7.63;;;1.90;;
75135;SDS011;63707;52.212;9.540;2023-12-20T13:49:51;6.05;;;1.83;;
75135;SDS011;63707;52.212;9.540;2023-12-20T13:52:16;5.38;;;1.60;;
75135;SDS011;63707;52.212;9.540;2023-12-20T13:54:42;7.07;;;1.45;;
75135;SDS011;63707;52.212;9.540;2023-12-20T13:57:07;9.02;;;2.60;;
75135;SDS011;63707;52.212;9.540;2023-12-20T13:59:35;7.07;;;1.73;;
75135;SDS011;63707;52.212;9.540;2023-12-20T14:02:00;6.18;;;1.40;;
75135;SDS011;63707;52.212;9.540;2023-12-20T14:04:28;5.40;;;1.30;;
75135;SDS011;63707;52.212;9.540;2023-12-20T14:06:54;8.38;;;1.58;;
75135;SDS011;63707;52.212;9.540;2023-12-20T14:09:19;5.10;;;1.50;;
75135;SDS011;63707;52.212;9.540;2023-12-20T14:11:45;8.82;;;1.30;;
75135;SDS011;63707;52.212;9.540;2023-12-20T14:14:11;5.72;;;1.10;;
75135;SDS011;63707;52.212;9.540;2023-12-20T14:16:37;9.88;;;2.10;;
75135;SDS011;63707;52.212;9.540;2023-12-20T14:19:03;7.82;;;1.80;;
75135;SDS011;63707;52.212;9.540;2023-12-20T14:21:28;6.43;;;1.30;;
75135;SDS011;63707;52.212;9.540;2023-12-20T14:23:54;3.28;;;1.05;;
75135;SDS011;63707;52.212;9.540;2023-12-20T14:26:20;7.55;;;1.83;;
75135;SDS011;63707;52.212;9.540;2023-12-20T14:28:48;7.05;;;1.40;;
75135;SDS011;63707;52.212;9.540;2023-12-20T14:31:13;7.95;;;1.10;;
75135;SDS011;63707;52.212;9.540;2023-12-20T14:33:40;5.07;;;1.42;;
75135;SDS011;63707;52.212;9.540;2023-12-20T14:36:07;8.18;;;1.58;;
75135;SDS011;63707;52.212;9.540;2023-12-20T14:38:33;10.82;;;1.70;;